Main page
METAR-TAF:

METAR-TAF

Airports :

Sanandaj Airport

Sanandaj, Iran

latitude: 35-20N, longitude: 047-00E, elevation: 1373 m

Current weather observation

The report was made 47 minutes ago, at 15:00 UTC
Wind 8 kt from the South/Southeast
Temperature 22°C
Humidity 25%
Pressure 1017 hPa
Visibility: 7000 m
Few clouds at a height of 3500 ft, Cumulonimbus.
Scattered clouds at a height of 4000 ft

METAR: OICS 201500Z 16008KT 7000 FEW035CB SCT040 22/01 Q1017 A3003 RETSRA

Time: 20:17 (15:47 UTC)


TAF: missing

Weather observations and forecasts of more than 4000 airports (METAR and TAF reports).

The available stations are represented by yellow and red dots on the map.

Hover mouse over dot to see the name of the station.

Then click to see weather observations and forecasts.

To change the map : click on the green buttons with a black cross to zoom in, on the green button with a dash to zoom out, or on the green arrows for adjacent maps.


METAR-TAF: